首页
METAR-TAF:

METAR-TAF

机场 :

Grider Field

Pine Bluff, 阿肯色州, 美国

纬度: 34-10-30N, 经度: 091-56-05W, 海拔: 63米

当前天气观测

该预报发布于43分钟前的09:53 UTC
风速4节,风向
温度 12°C
湿度 76%
气压 1017 hPa
能見度: 16.1公里
天空无云

METAR: KPBF 020953Z AUTO 10004KT 10SM CLR 12/08 A3002 RMK AO2 SLP165 T01220083

时间: 05:36 (10:36 UTC)

预报

该预报发布于5小时和11分钟前的05:25 UTC
预报有效从02日的 06点(UTC)到 03日的 06点(UTC)
风速4节,风向东转东南
能見度: 10公里
阴天层高于20000英尺
从 02日的 1500点(UTC)
风速10节,风向南转南东,有时为18节阵风
能見度: 10公里
多云层高于25000英尺
从 03日的 0000点(UTC)
风速8节,风向南转南东
能見度: 10公里
阴天层高于12000英尺

TAF: KPBF 020525Z 0206/0306 12004KT P6SM OVC200 FM021500 15010G18KT P6SM BKN250 FM030000 15008KT P6SM OVC120

超过4000个机场的气象观测和天气预报(METAR&TAF报告)。

可查询的气象台以黄色和红色小点在地图上表示。

将鼠标移到小点上方,可查看气象台名称。

然后点击查看天气观测和预报。

如需切换地图:点击带黑十字的绿色按钮放大地图;点击带横线的绿色按钮缩小地图;或者点击绿色箭头查看邻近地区的地图。


METAR-TAF: